Burr Oak, Michigan
Current Conditions -  °F | °C
As of 10:54 AM on Friday 28 Nov 2014 (Local Time) from KIRS Reporting Station
Overcast Overcast  
Wind Chill: 12°   Ceiling: 7500
Heat Index: 23°   Visibility: 10mi
Dew Point: 18°   Wind: 10mph
Humidity: 80%   Direction: 200°SSW
Pressure: 30.28"   Gusts: NA
Location:  41.85°N, 85.32°W
Report Text: KIRS 281554Z AUTO 20009KT 10SM SCT060 BKN075 OVC100 M05/M08 A3028 RMK AO2
Loading
Personal Weather Stations






























Interactive Weather Map New forecast layout! Learn more

10-Day Weather Forecast

Advertisements
Track Severe Weather on mobile